Time;durP1;ratioP1;P1;durP2;ratioP2;P2;SDS_P1;SDS_P2;PMS_P1;PMS_P2;Temp;Humidity;BMP_temperature;BMP_pressure;BME280_temperature;BME280_humidity;BME280_pressure;Samples;Min_cycle;Max_cycle;Signal;HPM_P1;HPM_P2
2023/05/14 00:00:49;;;;;;;4.20;2.80;;;21.60;62.00;;;;;;5071196;28;20063;-68
2023/05/14 00:03:14;;;;;;;4.68;3.10;;;21.60;61.90;;;;;;5071832;28;20041;-68
2023/05/14 00:05:40;;;;;;;4.88;2.90;;;21.60;62.00;;;;;;5077454;28;20127;-68
2023/05/14 00:08:05;;;;;;;6.00;3.58;;;21.50;61.90;;;;;;5082639;28;20404;-68
2023/05/14 00:10:31;;;;;;;4.18;2.78;;;21.50;61.90;;;;;;5072674;28;20045;-68
2023/05/14 00:12:57;;;;;;;5.80;2.70;;;21.50;61.90;;;;;;5071885;28;20036;-68
2023/05/14 00:15:22;;;;;;;4.95;2.83;;;21.50;61.90;;;;;;5072414;28;20087;-68
2023/05/14 00:17:48;;;;;;;3.88;2.75;;;21.50;61.90;;;;;;5072337;28;20036;-68
2023/05/14 00:20:13;;;;;;;6.35;3.15;;;21.50;61.90;;;;;;5070991;28;20417;-68
2023/05/14 00:22:39;;;;;;;5.18;3.00;;;21.50;61.90;;;;;;5075590;28;20423;-70
2023/05/14 00:25:05;;;;;;;4.35;3.20;;;21.50;61.90;;;;;;5072352;28;20391;-69
2023/05/14 00:27:31;;;;;;;5.38;2.85;;;21.50;61.90;;;;;;5071227;28;20381;-69
2023/05/14 00:29:56;;;;;;;6.53;3.00;;;21.50;61.90;;;;;;5072438;28;20502;-68
2023/05/14 00:32:22;;;;;;;5.25;3.00;;;21.50;61.90;;;;;;5070948;28;20084;-69
2023/05/14 00:34:48;;;;;;;3.47;2.75;;;21.50;61.90;;;;;;5071283;28;20044;-68
2023/05/14 00:37:13;;;;;;;4.45;2.90;;;21.50;61.90;;;;;;5071923;28;20036;-69
2023/05/14 00:39:39;;;;;;;4.20;2.63;;;21.50;61.90;;;;;;5071514;28;20044;-68
2023/05/14 00:42:05;;;;;;;5.35;2.97;;;21.40;61.80;;;;;;5069519;28;20032;-68
2023/05/14 00:44:30;;;;;;;5.90;3.50;;;21.40;61.90;;;;;;5070664;28;20040;-68
2023/05/14 00:46:56;;;;;;;5.15;3.28;;;21.40;61.90;;;;;;5071931;28;20516;-69
2023/05/14 00:49:21;;;;;;;4.38;2.83;;;21.40;61.90;;;;;;5069973;28;20049;-68
2023/05/14 00:51:47;;;;;;;5.40;2.88;;;21.40;61.90;;;;;;5069684;28;20045;-68
2023/05/14 00:54:13;;;;;;;5.18;3.22;;;21.40;61.90;;;;;;5071541;28;20045;-67
2023/05/14 00:56:39;;;;;;;5.82;2.70;;;21.40;61.90;;;;;;5053459;28;20045;-68
2023/05/14 00:59:05;;;;;;;4.82;3.08;;;21.40;61.90;;;;;;5070968;28;20089;-68
2023/05/14 01:01:30;;;;;;;4.38;2.70;;;21.40;61.90;;;;;;5069836;28;20488;-68
2023/05/14 01:03:56;;;;;;;3.58;2.70;;;21.40;61.90;;;;;;5071946;28;20123;-68
2023/05/14 01:06:37;;;;;;;4.90;2.72;;;21.40;61.90;;;;;;5053747;28;20052;-69
2023/05/14 01:09:25;;;;;;;4.05;2.97;;;21.40;61.80;;;;;;5053939;28;20048;-68
2023/05/14 01:11:53;;;;;;;5.10;3.03;;;21.40;61.80;;;;;;5075172;28;20060;-68
2023/05/14 01:15:01;;;;;;;4.13;2.42;;;21.40;61.90;;;;;;5073996;28;20495;-69
2023/05/14 01:17:28;;;;;;;3.33;2.53;;;21.40;61.80;;;;;;5068800;28;20521;-68
2023/05/14 01:19:54;;;;;;;5.57;2.78;;;21.40;61.90;;;;;;5073582;28;20392;-69
2023/05/14 01:22:19;;;;;;;3.97;2.72;;;21.30;61.80;;;;;;5037487;28;20494;-69
2023/05/14 01:24:45;;;;;;;4.40;2.90;;;21.30;61.80;;;;;;5072418;28;20069;-68
2023/05/14 01:27:29;;;;;;;4.82;2.78;;;21.30;61.80;;;;;;5074909;28;20064;-69
2023/05/14 01:30:31;;;;;;;4.50;2.85;;;21.30;61.80;;;;;;5073261;28;20059;-68
2023/05/14 01:32:59;;;;;;;4.80;2.58;;;21.30;61.80;;;;;;5068584;28;20052;-69
2023/05/14 01:35:25;;;;;;;;;;;21.30;61.80;;;;;;5074529;28;20067;-69
2023/05/14 01:37:52;;;;;;;3.72;2.70;;;21.30;61.80;;;;;;5074362;28;19924;-69
2023/05/14 01:40:17;;;;;;;4.13;2.92;;;21.30;61.90;;;;;;5057220;28;20044;-69
2023/05/14 01:42:43;;;;;;;5.90;2.80;;;21.30;61.80;;;;;;5074176;28;20036;-69
2023/05/14 01:45:09;;;;;;;5.10;3.05;;;21.30;61.80;;;;;;5045321;28;20533;-69
2023/05/14 01:47:35;;;;;;;3.67;2.60;;;21.30;61.80;;;;;;5055132;28;20151;-68
2023/05/14 01:50:00;;;;;;;5.03;2.50;;;21.30;61.80;;;;;;5073484;28;20138;-69
2023/05/14 01:52:26;;;;;;;3.95;2.90;;;21.30;61.80;;;;;;5072634;28;20048;-69
2023/05/14 01:54:51;;;;;;;4.57;3.03;;;21.30;61.80;;;;;;5073415;28;20129;-68
2023/05/14 01:57:17;;;;;;;4.50;2.65;;;21.30;61.80;;;;;;5073807;28;20078;-68
2023/05/14 01:59:42;;;;;;;4.13;2.47;;;21.20;61.80;;;;;;5073883;28;20079;-68
2023/05/14 02:02:08;;;;;;;4.50;2.80;;;21.30;61.80;;;;;;5072842;28;20044;-69
2023/05/14 02:04:33;;;;;;;5.43;3.17;;;21.20;61.80;;;;;;5073524;28;20051;-69
2023/05/14 02:06:59;;;;;;;4.28;2.72;;;21.20;61.70;;;;;;5074112;28;20484;-69
2023/05/14 02:09:25;;;;;;;5.30;2.67;;;21.20;61.70;;;;;;5072964;28;20539;-70
2023/05/14 02:11:50;;;;;;;4.75;2.88;;;21.30;61.80;;;;;;5072883;28;20518;-69
2023/05/14 02:14:16;;;;;;;4.45;2.42;;;21.20;61.70;;;;;;5072450;28;20047;-69
2023/05/14 02:16:41;;;;;;;4.90;2.55;;;21.20;61.80;;;;;;5073905;28;20040;-69
2023/05/14 02:19:07;;;;;;;4.38;2.67;;;21.20;61.70;;;;;;5073638;28;20040;-69
2023/05/14 02:21:32;;;;;;;3.83;2.60;;;21.20;61.70;;;;;;5073322;28;20044;-69
2023/05/14 02:23:58;;;;;;;4.38;2.78;;;21.20;61.70;;;;;;5074769;28;20036;-69
2023/05/14 02:26:23;;;;;;;4.03;2.47;;;21.20;61.70;;;;;;5073052;28;20135;-69
2023/05/14 02:28:49;;;;;;;4.13;2.58;;;21.20;61.60;;;;;;5074212;28;20080;-69
2023/05/14 02:31:17;;;;;;;4.90;2.90;;;21.20;61.60;;;;;;5074083;28;20047;-69
2023/05/14 02:33:43;;;;;;;;;;;21.20;61.70;;;;;;5073777;28;20389;-69
2023/05/14 02:36:08;;;;;;;3.97;2.60;;;21.10;61.50;;;;;;5074056;28;20413;-69
2023/05/14 02:38:34;;;;;;;3.75;2.53;;;21.10;61.70;;;;;;5073954;28;20507;-69
2023/05/14 02:40:59;;;;;;;4.53;2.65;;;21.10;61.70;;;;;;5072521;28;20430;-68
2023/05/14 02:43:25;;;;;;;4.05;2.50;;;21.10;61.60;;;;;;5072684;28;20044;-69
2023/05/14 02:45:50;;;;;;;3.92;2.47;;;21.10;61.60;;;;;;5074217;28;20075;-68
2023/05/14 02:48:16;;;;;;;3.47;2.50;;;21.10;61.60;;;;;;5071864;28;20119;-68
2023/05/14 02:50:42;;;;;;;3.40;2.40;;;21.10;61.60;;;;;;5072737;28;20040;-69
2023/05/14 02:53:07;;;;;;;3.65;2.38;;;21.10;61.60;;;;;;5072228;28;20195;-68
2023/05/14 02:55:33;;;;;;;4.45;2.67;;;21.10;61.60;;;;;;5073398;28;20127;-68
2023/05/14 02:57:59;;;;;;;4.30;2.70;;;21.10;61.60;;;;;;5071820;28;20094;-68
2023/05/14 03:00:25;;;;;;;4.35;2.63;;;21.10;61.60;;;;;;5072340;28;20584;-69
2023/05/14 03:02:50;;;;;;;3.47;2.65;;;21.10;61.60;;;;;;5073165;28;20127;-69
2023/05/14 03:05:16;;;;;;;4.13;2.75;;;21.10;61.60;;;;;;5086553;28;20046;-69
2023/05/14 03:07:41;;;;;;;3.85;2.50;;;21.10;61.60;;;;;;5081284;28;20135;-69
2023/05/14 03:10:07;;;;;;;4.32;2.40;;;21.10;61.60;;;;;;5072440;28;20036;-68
2023/05/14 03:12:33;;;;;;;3.70;2.75;;;21.00;61.50;;;;;;5087187;28;20052;-68
2023/05/14 03:14:58;;;;;;;2.60;2.17;;;21.00;61.50;;;;;;5078696;28;20040;-68
2023/05/14 03:17:24;;;;;;;4.85;2.45;;;21.00;61.50;;;;;;5070509;28;20048;-69
2023/05/14 03:19:49;;;;;;;3.50;2.47;;;21.00;61.50;;;;;;5072071;28;20127;-69
2023/05/14 03:22:15;;;;;;;3.33;2.33;;;21.00;61.50;;;;;;5072281;28;20052;-69
2023/05/14 03:24:40;;;;;;;4.20;2.78;;;21.00;61.50;;;;;;5072046;28;20049;-69
2023/05/14 03:27:06;;;;;;;4.53;2.60;;;21.00;61.50;;;;;;5071552;28;20057;-69
2023/05/14 03:29:31;;;;;;;4.53;2.53;;;21.00;61.50;;;;;;5072098;28;20063;-68
2023/05/14 03:31:57;;;;;;;3.72;2.58;;;21.00;61.50;;;;;;5071739;28;20041;-69
2023/05/14 03:34:22;;;;;;;3.75;2.30;;;21.00;61.50;;;;;;5071667;28;20094;-68
2023/05/14 03:36:48;;;;;;;5.00;2.70;;;21.00;61.50;;;;;;5054558;28;20048;-68
2023/05/14 03:39:18;;;;;;;3.78;2.40;;;21.00;61.50;;;;;;5072610;28;20032;-69
2023/05/14 03:41:44;;;;;;;3.80;2.38;;;21.00;61.50;;;;;;5071711;28;20550;-68
2023/05/14 03:44:09;;;;;;;3.92;2.42;;;21.00;61.50;;;;;;5070213;28;20063;-69
2023/05/14 03:46:35;;;;;;;3.70;2.65;;;21.00;61.50;;;;;;5086605;28;20067;-68
2023/05/14 03:49:01;;;;;;;3.38;2.47;;;21.00;61.50;;;;;;5077509;28;20044;-68
2023/05/14 03:51:26;;;;;;;4.90;2.47;;;21.00;61.50;;;;;;5071945;28;20045;-68
2023/05/14 03:53:52;;;;;;;3.22;2.53;;;21.00;61.50;;;;;;5072881;28;20036;-69
2023/05/14 03:56:17;;;;;;;3.78;2.60;;;20.90;61.40;;;;;;5072564;28;20040;-68
2023/05/14 03:58:43;;;;;;;4.13;2.30;;;21.00;61.50;;;;;;5071560;28;20039;-69
2023/05/14 04:01:08;;;;;;;3.80;2.60;;;20.90;61.40;;;;;;5064380;28;20049;-69
2023/05/14 04:03:34;;;;;;;4.65;2.40;;;20.90;61.40;;;;;;5062896;28;20032;-69
2023/05/14 04:06:00;;;;;;;2.65;1.88;;;20.90;61.40;;;;;;5070644;28;20052;-68
2023/05/14 04:08:25;;;;;;;4.07;2.67;;;20.90;61.40;;;;;;5070614;28;20052;-69
2023/05/14 04:10:51;;;;;;;3.45;2.30;;;20.90;61.40;;;;;;5071848;28;20044;-69
2023/05/14 04:13:16;;;;;;;3.65;2.55;;;20.90;61.40;;;;;;5070035;28;20055;-69
2023/05/14 04:15:42;;;;;;;3.53;2.10;;;20.90;61.40;;;;;;5090601;28;20079;-69
2023/05/14 04:18:08;;;;;;;3.50;2.35;;;20.90;61.40;;;;;;5091824;28;20040;-69
2023/05/14 04:20:33;;;;;;;3.45;2.33;;;20.90;61.40;;;;;;5074292;28;20048;-69
2023/05/14 04:22:59;;;;;;;4.00;2.22;;;20.90;61.40;;;;;;5071121;28;20041;-69
2023/05/14 04:25:24;;;;;;;4.20;2.58;;;20.90;61.40;;;;;;5068818;28;20052;-69
2023/05/14 04:27:50;;;;;;;4.18;2.35;;;20.90;61.40;;;;;;5071421;28;20052;-69
2023/05/14 04:30:15;;;;;;;4.03;2.40;;;20.90;61.40;;;;;;5070676;28;20129;-69
2023/05/14 04:32:41;;;;;;;4.32;2.38;;;20.90;61.40;;;;;;5071499;28;20828;-69
2023/05/14 04:35:08;;;;;;;3.55;2.60;;;20.90;61.40;;;;;;5071327;28;20037;-69
2023/05/14 04:37:34;;;;;;;2.90;2.25;;;20.90;61.40;;;;;;5071332;28;20125;-69
2023/05/14 04:40:00;;;;;;;3.53;2.65;;;20.90;61.40;;;;;;5069979;28;20040;-69
2023/05/14 04:42:25;;;;;;;3.53;2.58;;;20.90;61.40;;;;;;5071910;28;20044;-69
2023/05/14 04:44:51;;;;;;;3.20;2.10;;;20.90;61.40;;;;;;5071896;28;20044;-68
2023/05/14 04:47:16;;;;;;;3.67;2.47;;;20.80;61.40;;;;;;5071350;28;20071;-69
2023/05/14 04:49:42;;;;;;;3.88;2.35;;;20.80;61.40;;;;;;5071934;28;20045;-69
2023/05/14 04:52:08;;;;;;;3.72;2.65;;;20.90;61.40;;;;;;5071631;28;20079;-69
2023/05/14 04:54:33;;;;;;;4.57;2.65;;;20.80;61.40;;;;;;5071193;28;20518;-69
2023/05/14 04:57:02;;;;;;;3.60;2.17;;;20.80;61.40;;;;;;5070709;28;20147;-69
2023/05/14 04:59:28;;;;;;;4.15;2.35;;;20.80;61.40;;;;;;5071742;28;20052;-69
2023/05/14 05:01:54;;;;;;;3.35;2.35;;;20.80;61.40;;;;;;5068980;28;20048;-69
2023/05/14 05:04:19;;;;;;;2.92;2.22;;;20.80;61.40;;;;;;5071556;28;20043;-69
2023/05/14 05:06:45;;;;;;;3.40;2.20;;;20.80;61.40;;;;;;5071950;28;20033;-69
2023/05/14 05:09:11;;;;;;;3.40;2.50;;;20.80;61.40;;;;;;5071258;28;20427;-69
2023/05/14 05:11:37;;;;;;;4.07;2.50;;;20.80;61.40;;;;;;5071558;28;20044;-69
2023/05/14 05:14:03;;;;;;;3.97;2.25;;;20.80;61.40;;;;;;5070435;28;20056;-68
2023/05/14 05:16:28;;;;;;;4.78;2.40;;;20.80;61.40;;;;;;5070871;28;20037;-68
2023/05/14 05:18:54;;;;;;;3.42;2.25;;;20.80;61.40;;;;;;5071985;28;20078;-68
2023/05/14 05:21:20;;;;;;;4.28;2.47;;;20.80;61.40;;;;;;5071524;28;20045;-69
2023/05/14 05:23:45;;;;;;;2.50;2.10;;;20.80;61.40;;;;;;5070036;28;20553;-69
2023/05/14 05:26:11;;;;;;;3.95;2.22;;;20.80;61.40;;;;;;5074551;28;20126;-69
2023/05/14 05:28:36;;;;;;;3.28;2.30;;;20.80;61.40;;;;;;5071159;28;20530;-69
2023/05/14 05:31:02;;;;;;;3.78;2.40;;;20.80;62.00;;;;;;5069178;28;20404;-68
2023/05/14 05:33:27;;;;;;;3.40;2.20;;;20.80;61.40;;;;;;5070912;28;20045;-68
2023/05/14 05:35:53;;;;;;;3.08;2.25;;;20.80;61.40;;;;;;5073070;28;20391;-68
2023/05/14 05:38:18;;;;;;;3.08;2.30;;;20.80;61.40;;;;;;5070848;28;20131;-70
2023/05/14 05:40:44;;;;;;;4.47;2.20;;;20.80;61.40;;;;;;5071498;28;20041;-70
2023/05/14 05:43:10;;;;;;;3.92;2.50;;;20.80;61.50;;;;;;5032443;28;20174;-69
2023/05/14 05:45:35;;;;;;;3.42;2.15;;;20.80;61.70;;;;;;5049281;28;20045;-68
2023/05/14 05:48:01;;;;;;;3.33;2.20;;;20.80;61.60;;;;;;5051693;28;20103;-69
2023/05/14 05:50:26;;;;;;;6.60;2.55;;;20.80;61.50;;;;;;5053417;28;20136;-69
2023/05/14 05:52:52;;;;;;;3.75;2.35;;;20.90;61.50;;;;;;5070253;28;20148;-70
2023/05/14 05:55:18;;;;;;;3.33;2.30;;;20.90;61.60;;;;;;5071735;28;20472;-70
2023/05/14 05:57:43;;;;;;;3.72;2.47;;;20.90;61.60;;;;;;5073627;28;20472;-70
2023/05/14 06:00:12;;;;;;;5.30;2.60;;;20.90;61.50;;;;;;5075139;28;20041;-69
2023/05/14 06:02:38;;;;;;;4.15;2.10;;;20.90;61.60;;;;;;5075569;28;20048;-70
2023/05/14 06:05:05;;;;;;;3.67;2.38;;;20.90;61.70;;;;;;5074122;28;20113;-70
2023/05/14 06:07:30;;;;;;;6.55;2.40;;;20.90;61.70;;;;;;5075180;28;20045;-69
2023/05/14 06:09:56;;;;;;;4.05;2.28;;;20.90;61.70;;;;;;5075385;28;20052;-70
2023/05/14 06:12:21;;;;;;;4.57;2.22;;;20.90;61.70;;;;;;5072551;28;20048;-70
2023/05/14 06:14:47;;;;;;;5.47;3.17;;;20.90;61.70;;;;;;5073011;28;20036;-70
2023/05/14 06:17:12;;;;;;;5.43;2.42;;;20.90;61.90;;;;;;5074922;28;20044;-70
2023/05/14 06:19:38;;;;;;;3.65;2.40;;;20.90;61.90;;;;;;5074597;28;20087;-68
2023/05/14 06:22:03;;;;;;;4.85;2.40;;;20.90;62.00;;;;;;5073604;28;20040;-68
2023/05/14 06:24:29;;;;;;;3.25;2.35;;;21.00;62.20;;;;;;5073326;28;20044;-70
2023/05/14 06:26:55;;;;;;;3.65;2.10;;;21.00;62.10;;;;;;5085435;28;20056;-68
2023/05/14 06:29:20;;;;;;;3.83;2.28;;;21.00;62.20;;;;;;5094274;28;20384;-68
2023/05/14 06:31:46;;;;;;;3.08;2.25;;;21.00;62.30;;;;;;5078544;28;20047;-68
2023/05/14 06:34:11;;;;;;;5.65;2.30;;;21.00;62.30;;;;;;5071040;28;20098;-68
2023/05/14 06:36:37;;;;;;;5.70;2.50;;;21.00;62.40;;;;;;5073486;28;20049;-69
2023/05/14 06:39:03;;;;;;;4.15;2.30;;;21.00;62.50;;;;;;5071705;28;20036;-68
2023/05/14 06:41:28;;;;;;;3.90;2.40;;;21.00;62.50;;;;;;5072337;28;20043;-69
2023/05/14 06:43:54;;;;;;;3.92;2.40;;;21.00;62.50;;;;;;5072670;28;20040;-69
2023/05/14 06:46:20;;;;;;;5.97;2.50;;;21.00;62.60;;;;;;5072638;28;20847;-69
2023/05/14 06:48:45;;;;;;;4.85;2.63;;;21.10;62.70;;;;;;5073914;28;20123;-68
2023/05/14 06:51:12;;;;;;;3.45;2.60;;;21.10;62.80;;;;;;5071557;28;20053;-69
2023/05/14 06:53:38;;;;;;;4.88;2.20;;;21.10;62.90;;;;;;5072871;28;20090;-66
2023/05/14 06:56:04;;;;;;;5.22;2.35;;;21.00;62.80;;;;;;5073593;28;20492;-67
2023/05/14 06:58:29;;;;;;;4.57;2.53;;;21.10;62.90;;;;;;5073304;28;20040;-68
2023/05/14 07:00:55;;;;;;;7.32;2.55;;;21.10;62.90;;;;;;5072423;28;20035;-68
2023/05/14 07:03:21;;;;;;;5.55;2.30;;;21.10;62.80;;;;;;5072720;28;20394;-66
2023/05/14 07:05:47;;;;;;;5.70;2.28;;;21.10;62.80;;;;;;5071605;28;20086;-68
2023/05/14 07:08:12;;;;;;;4.53;2.47;;;21.10;62.90;;;;;;5070895;28;20093;-67
2023/05/14 07:10:38;;;;;;;4.00;2.20;;;21.10;62.90;;;;;;5073044;28;20032;-68
2023/05/14 07:13:04;;;;;;;6.68;2.70;;;21.10;63.60;;;;;;5072030;28;20036;-66
2023/05/14 07:15:29;;;;;;;3.80;2.50;;;21.20;63.10;;;;;;5072018;28;20036;-66
2023/05/14 07:17:55;;;;;;;7.13;2.38;;;21.10;63.00;;;;;;5069882;28;20096;-68
2023/05/14 07:20:22;;;;;;;8.27;3.13;;;21.20;63.00;;;;;;5071171;28;20036;-68
2023/05/14 07:22:48;;;;;;;5.43;2.67;;;21.20;63.10;;;;;;5070257;28;20089;-68
2023/05/14 07:25:14;;;;;;;5.22;2.75;;;21.20;63.20;;;;;;5071913;28;21339;-68
2023/05/14 07:27:40;;;;;;;4.00;2.75;;;21.20;63.20;;;;;;5071768;28;20044;-71
2023/05/14 07:30:06;;;;;;;11.32;3.03;;;21.20;63.30;;;;;;5072208;28;20644;-70
2023/05/14 07:32:32;;;;;;;3.88;2.30;;;21.20;63.30;;;;;;5072051;28;20482;-69
2023/05/14 07:34:57;;;;;;;4.50;2.53;;;21.30;63.40;;;;;;5074735;28;20132;-73
2023/05/14 07:37:24;;;;;;;4.75;2.70;;;21.30;63.40;;;;;;5073481;28;20072;-71
2023/05/14 07:39:50;;;;;;;4.38;2.30;;;21.30;63.40;;;;;;5075449;28;20107;-68
2023/05/14 07:42:16;;;;;;;4.38;2.60;;;21.30;63.50;;;;;;5077808;28;20090;-69
2023/05/14 07:44:42;;;;;;;3.92;2.70;;;21.30;63.40;;;;;;5071605;28;20048;-68
2023/05/14 07:47:07;;;;;;;6.18;2.25;;;21.30;63.40;;;;;;5071232;28;20448;-68
2023/05/14 07:49:33;;;;;;;5.43;2.47;;;21.40;63.40;;;;;;5070274;28;20050;-68
2023/05/14 07:51:59;;;;;;;5.05;2.40;;;21.40;63.20;;;;;;5073200;28;20132;-68
2023/05/14 07:54:24;;;;;;;5.43;2.67;;;21.40;63.10;;;;;;5073169;28;20032;-68
2023/05/14 07:56:50;;;;;;;3.97;2.58;;;21.40;63.10;;;;;;5071079;28;20055;-68
2023/05/14 07:59:16;;;;;;;5.53;2.65;;;21.40;63.00;;;;;;5072902;28;20044;-67
2023/05/14 08:01:41;;;;;;;3.90;2.38;;;21.40;62.90;;;;;;5073036;28;20127;-66
2023/05/14 08:04:07;;;;;;;4.35;2.60;;;21.40;63.50;;;;;;5070739;28;20064;-67
2023/05/14 08:06:33;;;;;;;4.28;2.33;;;21.40;62.90;;;;;;5072908;28;20044;-67
2023/05/14 08:08:58;;;;;;;4.38;2.58;;;21.40;62.80;;;;;;5068921;28;20123;-65
2023/05/14 08:11:24;;;;;;;6.50;3.20;;;21.40;62.70;;;;;;5053030;28;20159;-67
2023/05/14 08:13:50;;;;;;;4.05;2.60;;;21.40;62.80;;;;;;5055893;28;20116;-68
2023/05/14 08:16:16;;;;;;;4.97;2.53;;;21.40;62.90;;;;;;5056819;28;20127;-68
2023/05/14 08:18:41;;;;;;;4.63;2.55;;;21.40;62.90;;;;;;5070334;28;20071;-68
2023/05/14 08:21:07;;;;;;;5.22;2.38;;;21.40;63.00;;;;;;5057287;28;20519;-68
2023/05/14 08:23:32;;;;;;;6.35;2.47;;;21.50;63.10;;;;;;5063865;28;20037;-67
2023/05/14 08:25:58;;;;;;;4.03;2.45;;;21.50;63.10;;;;;;5064339;28;20072;-68
2023/05/14 08:28:24;;;;;;;4.03;2.53;;;21.50;63.10;;;;;;5056416;28;20045;-67
2023/05/14 08:30:50;;;;;;;3.47;2.50;;;21.50;63.10;;;;;;5063285;28;20044;-69
2023/05/14 08:33:16;;;;;;;5.97;2.50;;;21.50;63.10;;;;;;5064730;28;20044;-69
2023/05/14 08:35:42;;;;;;;4.20;2.50;;;21.50;63.30;;;;;;5071382;28;20045;-68
2023/05/14 08:38:08;;;;;;;5.72;3.10;;;21.50;63.00;;;;;;5071686;28;20124;-68
2023/05/14 08:40:33;;;;;;;7.07;3.53;;;21.50;62.80;;;;;;5074981;28;20521;-67
2023/05/14 08:42:59;;;;;;;7.55;3.67;;;21.50;62.50;;;;;;5074328;28;20087;-68
2023/05/14 08:45:28;;;;;;;5.43;3.42;;;21.50;62.30;;;;;;5083466;28;20044;-68
2023/05/14 08:47:54;;;;;;;5.68;3.83;;;21.50;62.30;;;;;;5070379;28;20049;-69
2023/05/14 08:50:20;;;;;;;6.57;3.80;;;21.50;62.20;;;;;;5070563;28;20431;-69
2023/05/14 08:52:45;;;;;;;5.90;3.28;;;21.50;62.20;;;;;;5069916;28;20450;-68
2023/05/14 08:55:11;;;;;;;6.65;3.65;;;21.50;62.20;;;;;;5050596;28;20091;-68
2023/05/14 08:57:36;;;;;;;6.80;3.33;;;21.40;62.10;;;;;;5051722;28;20044;-68
2023/05/14 09:00:12;;;;;;;5.43;3.45;;;21.50;62.20;;;;;;5052676;28;20044;-68
2023/05/14 09:02:39;;;;;;;5.03;3.20;;;21.50;62.20;;;;;;5070955;28;20045;-67
2023/05/14 09:05:06;;;;;;;5.05;2.80;;;21.50;62.30;;;;;;5070499;28;20139;-68
2023/05/14 09:07:32;;;;;;;5.60;3.15;;;21.40;62.40;;;;;;5053073;28;20052;-68
2023/05/14 09:09:57;;;;;;;4.43;2.85;;;21.50;62.50;;;;;;5053774;28;20036;-70
2023/05/14 09:12:23;;;;;;;5.57;3.22;;;21.50;62.50;;;;;;5052269;28;20040;-68
2023/05/14 09:14:49;;;;;;;5.22;3.08;;;21.50;62.70;;;;;;5070928;28;20102;-68
2023/05/14 09:17:15;;;;;;;4.80;3.22;;;21.50;62.70;;;;;;5071326;28;20586;-68
2023/05/14 09:19:41;;;;;;;5.22;3.00;;;21.50;62.70;;;;;;5069625;28;20396;-68
2023/05/14 09:22:13;;;;;;;4.90;2.85;;;21.60;62.80;;;;;;5069066;28;20105;-66
2023/05/14 09:24:40;;;;;;;7.70;3.13;;;21.60;62.80;;;;;;5070245;28;20101;-69
2023/05/14 09:27:06;;;;;;;6.40;3.20;;;21.60;62.80;;;;;;5071129;28;20053;-67
2023/05/14 09:29:31;;;;;;;5.30;3.20;;;21.60;62.80;;;;;;5069576;28;20040;-68
2023/05/14 09:31:57;;;;;;;4.38;3.08;;;21.60;62.80;;;;;;5072462;28;20052;-69
2023/05/14 09:34:27;;;;;;;6.28;3.08;;;21.60;62.80;;;;;;5073561;28;20044;-76
2023/05/14 09:36:56;;;;;;;5.78;3.22;;;21.70;62.90;;;;;;5072949;28;20049;-70
2023/05/14 09:39:23;;;;;;;6.65;3.45;;;21.70;62.80;;;;;;5075261;28;20036;-69
2023/05/14 09:41:50;;;;;;;5.55;3.13;;;21.70;62.80;;;;;;5073874;28;20049;-69
2023/05/14 09:44:16;;;;;;;6.32;3.10;;;21.70;62.90;;;;;;5074922;28;20049;-69
2023/05/14 09:46:41;;;;;;;6.25;3.40;;;21.70;62.80;;;;;;5072843;28;20059;-69
2023/05/14 09:49:07;;;;;;;5.20;2.75;;;21.70;62.90;;;;;;5073973;28;20037;-69
2023/05/14 09:51:32;;;;;;;6.43;2.97;;;21.70;62.90;;;;;;5074890;28;20040;-69
2023/05/14 09:53:58;;;;;;;4.93;3.03;;;21.70;62.90;;;;;;5074096;28;20500;-70
2023/05/14 09:56:24;;;;;;;7.75;3.17;;;21.70;62.90;;;;;;5055785;28;20387;-68
2023/05/14 09:58:49;;;;;;;6.22;3.13;;;21.70;62.90;;;;;;5074798;28;20036;-68
2023/05/14 10:01:16;;;;;;;5.18;3.08;;;21.80;63.00;;;;;;5074325;28;20044;-66
2023/05/14 10:03:42;;;;;;;5.35;3.00;;;21.80;63.00;;;;;;5074328;28;20051;-68
2023/05/14 10:06:09;;;;;;;5.00;3.10;;;21.80;63.00;;;;;;5036393;28;20041;-68
2023/05/14 10:08:35;;;;;;;3.97;2.85;;;21.80;63.00;;;;;;5072946;28;20047;-67
2023/05/14 10:11:11;;;;;;;4.68;3.17;;;21.80;63.00;;;;;;5072570;28;20041;-67
2023/05/14 10:13:38;;;;;;;3.97;2.83;;;21.80;63.10;;;;;;5074660;28;20044;-68
2023/05/14 10:16:16;;;;;;;4.85;2.70;;;21.80;63.00;;;;;;5073222;28;20040;-70
2023/05/14 10:18:44;;;;;;;6.45;3.10;;;21.80;63.00;;;;;;5072828;28;20048;-69
2023/05/14 10:21:10;;;;;;;4.88;3.03;;;21.80;63.00;;;;;;5056566;28;20040;-68
2023/05/14 10:23:36;;;;;;;7.90;3.30;;;21.80;63.00;;;;;;5086563;28;20047;-70
2023/05/14 10:26:02;;;;;;;7.05;3.30;;;21.90;63.10;;;;;;5055265;28;20411;-68
2023/05/14 10:28:28;;;;;;;3.50;2.97;;;21.90;63.10;;;;;;5071819;28;20480;-68
2023/05/14 10:30:53;;;;;;;3.78;2.65;;;21.90;63.00;;;;;;5072490;28;20040;-69
2023/05/14 10:33:19;;;;;;;5.75;3.05;;;21.90;63.00;;;;;;5072026;28;20055;-68
2023/05/14 10:35:56;;;;;;;4.60;2.90;;;21.90;63.00;;;;;;5074048;28;20503;-69
2023/05/14 10:38:26;;;;;;;6.93;3.30;;;21.90;63.00;;;;;;5070931;28;20079;-70
2023/05/14 10:41:20;;;;;;;5.63;3.30;;;21.90;63.00;;;;;;5063867;28;20094;-69
2023/05/14 10:43:46;;;;;;;7.07;3.00;;;21.90;63.00;;;;;;5049351;28;20099;-70
2023/05/14 10:46:12;;;;;;;5.05;3.00;;;21.90;63.00;;;;;;5063366;28;20045;-69
2023/05/14 10:48:39;;;;;;;5.30;2.78;;;21.90;63.00;;;;;;5063825;28;20033;-68
2023/05/14 10:51:09;;;;;;;5.65;2.50;;;21.90;62.90;;;;;;5070056;28;20072;-68
2023/05/14 10:53:40;;;;;;;4.15;2.50;;;22.00;62.90;;;;;;5072294;28;20052;-67
2023/05/14 10:56:07;;;;;;;5.22;2.83;;;22.00;62.90;;;;;;5072295;28;20049;-68
2023/05/14 10:58:50;;;;;;;4.55;2.90;;;22.00;62.90;;;;;;5072807;28;20047;-67
2023/05/14 11:01:16;;;;;;;4.85;3.03;;;22.00;62.80;;;;;;5071371;28;20438;-67
2023/05/14 11:03:45;;;;;;;4.88;2.85;;;22.00;62.80;;;;;;5072541;28;20098;-67
2023/05/14 11:06:12;;;;;;;5.10;2.67;;;22.00;62.80;;;;;;5071915;28;20147;-68
2023/05/14 11:08:38;;;;;;;5.43;2.85;;;22.00;62.80;;;;;;5080237;28;20040;-68
2023/05/14 11:11:07;;;;;;;4.78;3.22;;;22.10;62.90;;;;;;5088054;28;20089;-67
2023/05/14 11:13:33;;;;;;;5.57;2.67;;;22.10;62.90;;;;;;5071326;28;20040;-67
2023/05/14 11:16:00;;;;;;;3.88;2.85;;;22.10;62.90;;;;;;5073208;28;20086;-67
2023/05/14 11:18:29;;;;;;;4.03;2.53;;;22.10;62.90;;;;;;5073442;28;20044;-68
2023/05/14 11:21:01;;;;;;;6.50;2.83;;;22.10;62.90;;;;;;5072542;28;20076;-68
2023/05/14 11:23:26;;;;;;;6.05;2.45;;;22.10;62.90;;;;;;5072300;28;20383;-69
2023/05/14 11:25:53;;;;;;;5.82;2.83;;;22.10;62.90;;;;;;5072694;28;20060;-68
2023/05/14 11:28:22;;;;;;;6.75;3.00;;;22.10;62.90;;;;;;5071011;28;20060;-68
2023/05/14 11:30:50;;;;;;;4.97;2.85;;;22.10;62.90;;;;;;5071265;28;20040;-62
2023/05/14 11:33:16;;;;;;;7.47;3.28;;;22.10;62.90;;;;;;5072723;28;20036;-60
2023/05/14 11:35:44;;;;;;;6.88;3.28;;;22.10;63.00;;;;;;5071591;28;20052;-62
2023/05/14 11:38:16;;;;;;;7.22;3.10;;;22.10;63.10;;;;;;5069787;28;20051;-69
2023/05/14 11:40:49;;;;;;;9.35;2.63;;;22.10;63.30;;;;;;5071606;28;20052;-68
2023/05/14 11:43:15;;;;;;;10.70;3.38;;;22.10;63.20;;;;;;5070185;28;20067;-67
2023/05/14 11:45:40;;;;;;;6.95;3.30;;;22.10;63.20;;;;;;5054946;28;20476;-69
2023/05/14 11:48:13;;;;;;;5.20;2.95;;;22.10;63.10;;;;;;5071177;28;20802;-68
2023/05/14 11:50:40;;;;;;;5.57;3.10;;;22.10;63.10;;;;;;5070632;28;20040;-68
2023/05/14 11:53:05;;;;;;;7.25;2.70;;;22.20;63.10;;;;;;5072034;28;20052;-67
2023/05/14 11:55:34;;;;;;;6.93;3.17;;;22.20;63.10;;;;;;5071181;28;20404;-69
2023/05/14 11:58:00;;;;;;;6.53;3.38;;;22.10;63.10;;;;;;5054358;28;20384;-66
2023/05/14 12:00:25;;;;;;;6.45;2.90;;;22.10;63.10;;;;;;5071269;28;20048;-66
2023/05/14 12:02:51;;;;;;;5.78;3.00;;;22.20;63.10;;;;;;5070521;28;20037;-66
2023/05/14 12:05:18;;;;;;;8.73;3.58;;;22.20;63.10;;;;;;5071363;28;20136;-66
2023/05/14 12:07:44;;;;;;;6.78;4.07;;;22.20;62.90;;;;;;5070663;28;20508;-67
2023/05/14 12:10:10;;;;;;;6.70;4.50;;;22.20;62.20;;;;;;5069219;28;20059;-66
2023/05/14 12:12:36;;;;;;;6.63;4.40;;;22.10;61.20;;;;;;5070539;28;20044;-67
2023/05/14 12:15:08;;;;;;;7.30;4.70;;;22.10;60.40;;;;;;5072079;28;20039;-66
2023/05/14 12:17:34;;;;;;;10.88;5.18;;;22.10;59.70;;;;;;5067020;28;20045;-67
2023/05/14 12:20:00;;;;;;;7.80;5.07;;;22.10;59.10;;;;;;5071104;28;20050;-67
2023/05/14 12:22:26;;;;;;;7.57;4.57;;;22.10;58.30;;;;;;5070610;28;20063;-67
2023/05/14 12:24:55;;;;;;;7.03;4.18;;;22.10;58.10;;;;;;5070140;28;20049;-67
2023/05/14 12:27:25;;;;;;;5.97;3.97;;;22.10;58.00;;;;;;5061698;28;20072;-67
2023/05/14 12:30:11;;;;;;;6.10;3.88;;;22.10;58.10;;;;;;5066298;28;20086;-66
2023/05/14 12:32:38;;;;;;;7.40;4.18;;;22.20;57.90;;;;;;5054336;28;20123;-66
2023/05/14 12:35:04;;;;;;;6.78;3.60;;;22.20;57.80;;;;;;5056503;28;20051;-67
2023/05/14 12:37:30;;;;;;;6.72;4.00;;;22.20;57.80;;;;;;5060276;28;20047;-66
2023/05/14 12:39:55;;;;;;;6.88;3.90;;;22.20;56.70;;;;;;5059926;28;20119;-67
2023/05/14 12:42:21;;;;;;;6.65;3.83;;;22.20;56.30;;;;;;5061370;28;20037;-67
2023/05/14 12:44:46;;;;;;;8.55;3.88;;;22.20;55.70;;;;;;5056984;28;20079;-66